createdAt,value
2019-06-20T00:01:05.869Z,8.33
2019-06-20T00:05:09.853Z,8.30
2019-06-20T00:09:13.953Z,7.70
2019-06-20T00:13:17.844Z,8.23
2019-06-20T00:17:21.698Z,9.30
2019-06-20T00:21:25.415Z,8.93
2019-06-20T00:25:27.872Z,9.17
2019-06-20T00:29:31.840Z,8.90
2019-06-20T00:33:34.083Z,9.33
2019-06-20T00:37:36.090Z,8.97
2019-06-20T00:41:38.351Z,9.10
2019-06-20T00:45:40.453Z,8.27
2019-06-20T00:49:42.899Z,8.67
2019-06-20T00:53:46.106Z,8.67
2019-06-20T00:57:48.634Z,9.33
2019-06-20T01:01:50.899Z,9.17
2019-06-20T01:05:53.119Z,8.97
2019-06-20T01:09:55.261Z,8.83
2019-06-20T01:13:57.344Z,9.67
2019-06-20T01:17:59.522Z,8.73
2019-06-20T01:22:02.164Z,9.37
2019-06-20T01:26:04.867Z,9.17
2019-06-20T01:30:09.441Z,9.60
2019-06-20T01:34:11.631Z,10.30
2019-06-20T01:38:13.878Z,10.00
2019-06-20T01:42:17.413Z,9.10
2019-06-20T01:46:21.307Z,9.10
2019-06-20T01:50:24.941Z,9.33
2019-06-20T01:54:28.759Z,9.17
2019-06-20T01:58:32.000Z,9.60
2019-06-20T02:02:35.400Z,8.93
2019-06-20T02:06:38.991Z,8.63
2019-06-20T02:10:43.153Z,9.40
2019-06-20T02:14:47.143Z,9.10
2019-06-20T02:18:51.009Z,10.17
2019-06-20T02:22:54.569Z,8.83
2019-06-20T02:26:58.442Z,8.43
2019-06-20T02:31:02.510Z,8.87
2019-06-20T02:35:06.585Z,7.73
2019-06-20T02:39:10.491Z,8.30
2019-06-20T02:43:14.313Z,7.43
2019-06-20T02:47:18.167Z,6.63
2019-06-20T02:51:25.116Z,6.03
2019-06-20T02:55:28.871Z,6.40
2019-06-20T02:59:32.650Z,5.50
2019-06-20T03:03:36.533Z,5.70
2019-06-20T03:07:40.714Z,5.67
2019-06-20T03:11:44.644Z,5.53
2019-06-20T03:15:50.092Z,5.83
2019-06-20T03:19:52.298Z,5.27
2019-06-20T03:23:54.559Z,6.13
2019-06-20T03:27:56.669Z,5.77
2019-06-20T03:31:59.387Z,6.07
2019-06-20T03:36:01.608Z,5.17
2019-06-20T03:40:04.402Z,5.27
2019-06-20T03:44:06.613Z,4.63
2019-06-20T03:48:08.798Z,5.00
2019-06-20T03:52:10.959Z,5.23
2019-06-20T03:56:13.085Z,5.07
2019-06-20T04:00:15.727Z,4.67
2019-06-20T04:04:18.043Z,5.63
2019-06-20T04:08:20.161Z,5.13
2019-06-20T04:12:22.337Z,5.03
2019-06-20T04:16:24.758Z,4.67
2019-06-20T04:20:27.130Z,5.20
2019-06-20T04:24:29.112Z,5.40
2019-06-20T04:28:31.454Z,5.33
2019-06-20T04:32:34.102Z,5.00
2019-06-20T04:36:36.323Z,5.83
2019-06-20T04:40:39.980Z,5.20
2019-06-20T04:44:43.957Z,5.23
2019-06-20T04:48:47.250Z,4.30
2019-06-20T04:52:51.073Z,4.40
2019-06-20T04:56:54.018Z,4.60
2019-06-20T05:00:57.682Z,4.60
2019-06-20T05:05:01.459Z,4.17
2019-06-20T05:09:06.268Z,4.50
2019-06-20T05:13:10.147Z,3.47
2019-06-20T05:17:14.920Z,3.97
2019-06-20T05:21:22.269Z,4.20
2019-06-20T05:25:24.189Z,3.77
2019-06-20T05:29:27.946Z,4.03
2019-06-20T05:33:32.319Z,3.70
2019-06-20T05:37:36.080Z,3.77
2019-06-20T05:41:39.993Z,3.50
2019-06-20T05:45:47.601Z,4.00
2019-06-20T05:49:49.246Z,3.50
2019-06-20T05:53:53.002Z,3.40
2019-06-20T05:57:56.489Z,3.73
2019-06-20T06:02:00.254Z,3.07
2019-06-20T06:06:04.064Z,3.20
2019-06-20T06:10:06.475Z,3.53
2019-06-20T06:14:09.949Z,3.43
2019-06-20T06:18:12.116Z,3.20
2019-06-20T06:22:14.277Z,3.23
2019-06-20T06:26:16.463Z,3.00
2019-06-20T06:30:19.051Z,3.20
2019-06-20T06:34:22.144Z,3.03
2019-06-20T06:38:24.762Z,2.70
2019-06-20T06:42:27.675Z,3.30
2019-06-20T06:46:44.017Z,2.80
2019-06-20T06:50:34.377Z,3.23
2019-06-20T06:54:36.594Z,3.10
2019-06-20T06:58:38.745Z,2.80
2019-06-20T07:02:41.058Z,3.37
2019-06-20T07:06:43.210Z,2.97
2019-06-20T07:10:45.252Z,3.10
2019-06-20T07:14:47.235Z,3.17
2019-06-20T07:18:51.106Z,3.10
2019-06-20T07:22:55.592Z,3.03
2019-06-20T07:26:57.596Z,3.17
2019-06-20T07:30:59.595Z,3.40
2019-06-20T07:35:04.044Z,2.80
2019-06-20T07:39:09.280Z,3.13
2019-06-20T07:43:12.671Z,2.83
2019-06-20T07:47:18.194Z,3.00
2019-06-20T07:51:21.662Z,2.60
2019-06-20T07:55:24.580Z,2.63
2019-06-20T07:59:28.436Z,2.40
2019-06-20T08:03:32.152Z,2.50
2019-06-20T08:07:36.096Z,2.53
2019-06-20T08:11:39.838Z,2.70
2019-06-20T08:15:43.719Z,2.20
2019-06-20T08:19:47.762Z,2.90
2019-06-20T08:23:51.522Z,2.87
2019-06-20T08:27:57.223Z,2.70
2019-06-20T08:32:01.126Z,2.57
2019-06-20T08:36:06.723Z,2.70
2019-06-20T08:40:10.777Z,2.60
2019-06-20T08:44:14.532Z,2.63
2019-06-20T08:48:18.459Z,2.40
2019-06-20T08:52:22.214Z,2.70
2019-06-20T08:56:26.088Z,2.52
2019-06-20T09:00:31.519Z,2.30
2019-06-20T09:04:35.469Z,2.30
2019-06-20T09:08:40.226Z,2.70
2019-06-20T09:12:44.031Z,2.70
2019-06-20T09:16:47.805Z,2.85
2019-06-20T09:20:50.024Z,2.47
2019-06-20T09:24:53.326Z,2.30
2019-06-20T09:28:57.151Z,2.10
2019-06-20T09:32:59.998Z,2.17
2019-06-20T09:37:04.007Z,2.20
2019-06-20T09:41:06.193Z,2.10
2019-06-20T09:45:09.074Z,1.85
2019-06-20T09:49:11.180Z,1.87
2019-06-20T09:53:13.265Z,1.77
2019-06-20T09:57:15.265Z,1.77
2019-06-20T10:01:17.322Z,2.07
2019-06-20T10:05:19.660Z,1.43
2019-06-20T10:09:21.833Z,1.20
2019-06-20T10:13:23.977Z,1.67
2019-06-20T10:17:26.225Z,2.17
2019-06-20T10:21:28.366Z,1.77
2019-06-20T10:25:30.832Z,1.90
2019-06-20T10:29:33.268Z,1.80
2019-06-20T10:33:35.704Z,1.70
2019-06-20T10:37:38.646Z,1.47
2019-06-20T10:41:41.699Z,1.85
2019-06-20T10:45:45.841Z,1.80
2019-06-20T10:49:50.410Z,1.80
2019-06-20T10:53:53.463Z,1.70
2019-06-20T10:57:56.846Z,1.60
2019-06-20T11:02:00.619Z,2.27
2019-06-20T11:06:04.322Z,1.42
2019-06-20T11:10:09.273Z,1.80
2019-06-20T11:14:12.786Z,1.85
2019-06-20T11:18:16.169Z,1.63
2019-06-20T11:22:19.741Z,1.90
2019-06-20T11:26:23.484Z,2.10
2019-06-20T11:30:28.117Z,1.90
2019-06-20T11:34:31.485Z,2.20
2019-06-20T11:38:34.926Z,2.40
2019-06-20T11:42:38.328Z,2.33
2019-06-20T11:46:42.657Z,2.10
2019-06-20T11:50:46.628Z,2.20
2019-06-20T11:54:51.323Z,2.10
2019-06-20T11:58:55.089Z,2.17
2019-06-20T12:02:59.858Z,2.53
2019-06-20T12:07:03.234Z,2.23
2019-06-20T12:11:06.693Z,2.13
2019-06-20T12:15:10.256Z,2.10
2019-06-20T12:19:12.120Z,2.33
2019-06-20T12:23:13.866Z,2.13
2019-06-20T12:27:15.754Z,1.97
2019-06-20T12:31:19.781Z,2.00
2019-06-20T12:35:22.237Z,2.20
2019-06-20T12:39:24.003Z,2.10
2019-06-20T12:43:25.911Z,2.50
2019-06-20T12:47:27.686Z,2.13
2019-06-20T12:51:29.627Z,2.33
2019-06-20T12:55:31.750Z,3.03
2019-06-20T12:59:33.976Z,2.30
2019-06-20T13:03:35.888Z,2.60
2019-06-20T13:07:39.236Z,2.20
2019-06-20T13:11:42.645Z,2.27
2019-06-20T13:15:44.860Z,2.60
2019-06-20T13:19:46.817Z,2.33
2019-06-20T13:23:49.647Z,2.33
2019-06-20T13:27:53.213Z,2.40
2019-06-20T13:32:03.833Z,2.13
2019-06-20T13:35:59.678Z,2.67
2019-06-20T13:40:03.064Z,2.13
2019-06-20T13:44:06.580Z,2.30
2019-06-20T13:48:10.359Z,2.00
2019-06-20T13:52:13.813Z,2.33
2019-06-20T13:56:17.358Z,2.30
2019-06-20T14:00:21.652Z,2.10
2019-06-20T14:04:25.229Z,2.60
2019-06-20T14:08:29.088Z,2.30
2019-06-20T14:12:32.617Z,2.50
2019-06-20T14:16:36.406Z,2.63
2019-06-20T14:20:40.081Z,2.17
2019-06-20T14:24:45.054Z,2.90
2019-06-20T14:28:48.856Z,2.70
2019-06-20T14:32:53.998Z,2.67
2019-06-20T14:36:58.098Z,3.20
2019-06-20T14:41:01.960Z,2.90
2019-06-20T14:45:06.356Z,3.00
2019-06-20T14:49:10.173Z,2.77
2019-06-20T14:53:13.900Z,3.77
2019-06-20T14:57:18.887Z,3.35
2019-06-20T15:01:22.645Z,3.08
2019-06-20T15:05:26.236Z,3.33
2019-06-20T15:09:30.264Z,3.12
2019-06-20T15:13:34.055Z,3.35
2019-06-20T15:17:37.937Z,3.15
2019-06-20T15:21:41.705Z,3.20
2019-06-20T15:25:43.963Z,3.60
2019-06-20T15:29:47.612Z,3.30
2019-06-20T15:33:51.680Z,3.72
2019-06-20T15:37:55.683Z,3.45
2019-06-20T15:41:58.228Z,3.80
2019-06-20T15:46:00.305Z,3.10
2019-06-20T15:50:02.820Z,3.20
2019-06-20T15:54:05.070Z,3.10
2019-06-20T15:58:07.405Z,3.05
2019-06-20T16:02:09.950Z,2.85
2019-06-20T16:06:12.212Z,3.25
2019-06-20T16:10:14.466Z,2.95
2019-06-20T16:14:18.119Z,3.30
2019-06-20T16:18:20.270Z,3.45
2019-06-20T16:22:22.522Z,2.60
2019-06-20T16:26:25.727Z,2.60
2019-06-20T16:30:28.388Z,2.90
2019-06-20T16:34:30.596Z,2.40
2019-06-20T16:38:32.818Z,2.77
2019-06-20T16:42:35.116Z,2.70
2019-06-20T16:46:38.532Z,2.60
2019-06-20T16:50:42.122Z,3.10
2019-06-20T16:54:45.738Z,3.10
2019-06-20T16:58:49.508Z,3.30
2019-06-20T17:02:53.256Z,3.00
2019-06-20T17:06:58.172Z,2.97
2019-06-20T17:11:02.014Z,3.10
2019-06-20T17:15:07.993Z,2.87
2019-06-20T17:19:11.898Z,2.77
2019-06-20T17:23:15.314Z,2.70
2019-06-20T17:27:19.083Z,3.00
2019-06-20T17:31:23.944Z,3.17
2019-06-20T17:35:27.999Z,3.03
2019-06-20T17:39:34.294Z,2.97
2019-06-20T17:43:37.970Z,2.87
2019-06-20T17:47:42.845Z,2.57
2019-06-20T17:51:46.703Z,2.20
2019-06-20T17:55:50.388Z,2.80
2019-06-20T17:59:54.132Z,2.90
2019-06-20T18:04:12.838Z,2.50
2019-06-20T18:08:14.702Z,2.70
2019-06-20T18:12:09.112Z,2.87
2019-06-20T18:16:24.679Z,2.80
2019-06-20T18:20:19.629Z,2.70
2019-06-20T18:24:23.456Z,2.50
2019-06-20T18:28:25.743Z,2.93
2019-06-20T18:32:27.758Z,3.00
2019-06-20T18:36:30.007Z,3.20
2019-06-20T18:40:32.250Z,3.07
2019-06-20T18:44:34.385Z,3.43
2019-06-20T18:48:36.604Z,2.73
2019-06-20T18:52:51.655Z,3.00
2019-06-20T18:56:42.698Z,2.97
2019-06-20T19:00:44.912Z,2.83
2019-06-20T19:04:50.712Z,3.30
2019-06-20T19:08:52.529Z,3.23
2019-06-20T19:12:56.554Z,2.80
2019-06-20T19:17:00.423Z,3.40
2019-06-20T19:21:04.254Z,3.63
2019-06-20T19:25:08.621Z,3.37
2019-06-20T19:29:12.301Z,3.20
2019-06-20T19:33:16.202Z,3.23
2019-06-20T19:37:19.954Z,3.20
2019-06-20T19:41:24.649Z,3.57
2019-06-20T19:45:28.478Z,3.70
2019-06-20T19:49:32.612Z,3.67
2019-06-20T19:53:37.560Z,3.37
2019-06-20T19:57:41.327Z,3.60
2019-06-20T20:01:45.385Z,3.90
2019-06-20T20:05:49.475Z,3.47
2019-06-20T20:09:53.649Z,4.00
2019-06-20T20:13:58.844Z,3.40
2019-06-20T20:18:02.722Z,3.70
2019-06-20T20:22:07.495Z,3.60
2019-06-20T20:26:11.247Z,3.43
2019-06-20T20:30:16.897Z,3.60
2019-06-20T20:34:20.949Z,3.80
2019-06-20T20:38:24.606Z,3.93
2019-06-20T20:42:28.371Z,4.43
2019-06-20T20:46:32.134Z,4.37
2019-06-20T20:50:35.930Z,4.07
2019-06-20T20:54:39.772Z,4.03
2019-06-20T20:58:44.580Z,4.33
2019-06-20T21:02:48.332Z,4.70
2019-06-20T21:06:52.006Z,4.30
2019-06-20T21:10:55.962Z,4.50
2019-06-20T21:14:59.765Z,4.23
2019-06-20T21:19:03.644Z,4.67
2019-06-20T21:23:07.371Z,4.50
2019-06-20T21:27:11.347Z,4.83
2019-06-20T21:31:15.405Z,4.93
2019-06-20T21:35:19.466Z,4.83
2019-06-20T21:39:23.360Z,4.67
2019-06-20T21:43:27.083Z,5.00
2019-06-20T21:47:30.672Z,5.07
2019-06-20T21:51:34.506Z,4.70
2019-06-20T21:55:36.913Z,5.07
2019-06-20T21:59:39.130Z,4.73
2019-06-20T22:03:41.458Z,5.67
2019-06-20T22:07:43.594Z,5.17
2019-06-20T22:11:47.395Z,4.93
2019-06-20T22:15:49.450Z,5.37
2019-06-20T22:19:51.513Z,5.70
2019-06-20T22:23:53.679Z,5.67
2019-06-20T22:27:55.848Z,5.53
2019-06-20T22:31:58.002Z,5.50
2019-06-20T22:36:00.270Z,5.60
2019-06-20T22:40:02.236Z,5.60
2019-06-20T22:44:04.553Z,5.13
2019-06-20T22:48:07.274Z,5.67
2019-06-20T22:52:09.588Z,6.20
2019-06-20T22:56:11.674Z,5.93
2019-06-20T23:00:14.488Z,6.13
2019-06-20T23:04:16.637Z,5.70
2019-06-20T23:08:18.755Z,6.40
2019-06-20T23:12:22.041Z,6.43
2019-06-20T23:16:24.300Z,6.60
2019-06-20T23:20:26.581Z,6.27
2019-06-20T23:24:30.398Z,6.40
2019-06-20T23:28:34.115Z,6.27
2019-06-20T23:32:37.907Z,6.43
2019-06-20T23:36:41.666Z,6.40
2019-06-20T23:40:45.437Z,6.73
2019-06-20T23:44:49.587Z,6.33
2019-06-20T23:48:53.257Z,6.60
2019-06-20T23:53:03.154Z,6.67
2019-06-20T23:57:06.959Z,6.77
